Terminal Aerodrome Forecast
Issued by NWS Wilmington, OH

Current Version | Previous Version | Text Only | Print | Product List | Glossary Off
Versions: 1 2 3 4 5 6 7 8 9 10 11 12 13 14 15 16 17 18 19 20 21 22 23 24

000
FTUS41 KILN 232000 AAA
TAFDAY
TAF AMD
KDAY 232052Z 2321/2418 05011KT P6SM VCSH OVC040
      TEMPO 2321/2324 1SM -SNPL OVC010
     FM240300 06009KT P6SM SCT010 OVC035
     FM241300 08008KT P6SM OVC035=

USA.gov is the U.S. government's official web portal to all federal, state and local government web resources and services.